Time;durP1;ratioP1;P1;durP2;ratioP2;P2;SDS_P1;SDS_P2;PMS_P1;PMS_P2;Temp;Humidity;BMP_temperature;BMP_pressure;BME280_temperature;BME280_humidity;BME280_pressure;Samples;Min_cycle;Max_cycle;Signal;HPM_P1;HPM_P2
2023/03/19 00:01:26;;;;;;;16.35;13.63;;;10.20;99.90;;;;;;4940537;28;89485;-31
2023/03/19 00:03:53;;;;;;;25.58;15.85;;;10.20;99.90;;;;;;4939579;28;88736;-31
2023/03/19 00:06:19;;;;;;;22.85;16.08;;;10.20;99.90;;;;;;4940145;28;90553;-32
2023/03/19 00:08:45;;;;;;;20.73;15.57;;;10.10;99.90;;;;;;4939599;28;89903;-30
2023/03/19 00:11:12;;;;;;;19.92;15.18;;;10.10;99.90;;;;;;4939719;28;89189;-29
2023/03/19 00:13:38;;;;;;;18.77;16.05;;;10.10;99.90;;;;;;4940467;28;89459;-32
2023/03/19 00:16:05;;;;;;;19.42;16.88;;;10.10;99.90;;;;;;4940423;28;91650;-31
2023/03/19 00:18:31;;;;;;;19.70;16.05;;;10.10;99.90;;;;;;4939759;28;90071;-32
2023/03/19 00:20:57;;;;;;;20.17;13.93;;;10.10;99.90;;;;;;4940504;28;89570;-30
2023/03/19 00:23:22;;;;;;;19.17;15.07;;;10.10;99.90;;;;;;4940020;28;90237;-30
2023/03/19 00:25:48;;;;;;;17.77;14.68;;;10.10;99.90;;;;;;4939134;28;89644;-30
2023/03/19 00:28:14;;;;;;;19.10;14.43;;;10.00;99.90;;;;;;4938853;28;90993;-30
2023/03/19 00:30:39;;;;;;;21.80;16.20;;;10.00;99.90;;;;;;4939290;28;90609;-30
2023/03/19 00:33:05;;;;;;;21.52;16.38;;;10.10;99.90;;;;;;4940023;28;88997;-31
2023/03/19 00:35:31;;;;;;;22.27;16.45;;;10.00;99.90;;;;;;4938952;28;90293;-32
2023/03/19 00:37:57;;;;;;;22.02;18.08;;;10.00;99.90;;;;;;4939335;28;90170;-30
2023/03/19 00:40:23;;;;;;;19.75;14.32;;;10.10;99.90;;;;;;4940178;28;89064;-29
2023/03/19 00:42:48;;;;;;;19.02;16.70;;;10.10;99.90;;;;;;4938583;28;89719;-30
2023/03/19 00:45:15;;;;;;;17.80;14.43;;;10.10;99.90;;;;;;4940402;28;90267;-30
2023/03/19 00:47:41;;;;;;;17.42;14.38;;;10.00;99.90;;;;;;4938792;28;90511;-29
2023/03/19 00:50:07;;;;;;;19.65;15.68;;;10.00;99.90;;;;;;4939505;28;89385;-28
2023/03/19 00:52:32;;;;;;;21.48;15.63;;;10.10;99.90;;;;;;4938763;28;89603;-30
2023/03/19 00:54:58;;;;;;;18.52;13.07;;;10.10;99.90;;;;;;4939501;28;90195;-28
2023/03/19 00:57:24;;;;;;;20.58;15.27;;;10.10;99.90;;;;;;4939360;28;89421;-29
2023/03/19 00:59:50;;;;;;;15.80;13.80;;;10.10;99.90;;;;;;4939579;28;90084;-31
2023/03/19 01:02:16;;;;;;;16.38;14.07;;;10.10;99.90;;;;;;4938634;28;89846;-32
2023/03/19 01:04:42;;;;;;;19.58;14.48;;;10.10;99.90;;;;;;4939422;28;90597;-29
2023/03/19 01:07:07;;;;;;;20.80;14.70;;;10.10;99.90;;;;;;4938502;28;89578;-29
2023/03/19 01:09:34;;;;;;;19.23;14.77;;;10.10;99.90;;;;;;4939901;28;90226;-31
2023/03/19 01:12:03;;;;;;;16.45;14.27;;;10.10;99.90;;;;;;4939042;28;88999;-31
2023/03/19 01:14:30;;;;;;;18.73;14.77;;;10.10;99.90;;;;;;4938772;28;89516;-30
2023/03/19 01:16:56;;;;;;;16.10;12.40;;;10.10;99.90;;;;;;4937904;28;90373;-31
2023/03/19 01:19:21;;;;;;;12.55;10.73;;;10.20;99.90;;;;;;4939453;28;90118;-31
2023/03/19 01:21:48;;;;;;;13.48;10.50;;;10.20;99.90;;;;;;4939304;28;88274;-32
2023/03/19 01:24:15;;;;;;;15.48;11.38;;;10.30;99.90;;;;;;4938705;28;89835;-32
2023/03/19 01:26:41;;;;;;;12.85;10.93;;;10.20;99.90;;;;;;4938949;28;90024;-29
2023/03/19 01:29:07;;;;;;;15.88;10.63;;;10.30;99.90;;;;;;4938534;28;90414;-29
2023/03/19 01:31:34;;;;;;;13.93;11.35;;;10.30;99.90;;;;;;4938569;28;89408;-33
2023/03/19 01:34:00;;;;;;;12.05;10.52;;;10.30;99.90;;;;;;4939030;28;90746;-30
2023/03/19 01:36:26;;;;;;;16.58;12.38;;;10.40;99.90;;;;;;4938426;28;89779;-33
2023/03/19 01:38:52;;;;;;;12.98;11.63;;;10.30;99.90;;;;;;4938803;28;89598;-28
2023/03/19 01:41:18;;;;;;;15.48;12.18;;;10.40;99.90;;;;;;4938557;28;89889;-32
2023/03/19 01:43:45;;;;;;;16.20;11.85;;;10.40;99.90;;;;;;4938456;28;90089;-27
2023/03/19 01:46:36;;;;;;;15.25;12.68;;;10.40;99.90;;;;;;4938733;28;89187;-30
2023/03/19 01:49:05;;;;;;;13.95;11.18;;;10.40;99.90;;;;;;4938494;28;89001;-31
2023/03/19 01:51:37;;;;;;;13.40;11.73;;;10.40;99.90;;;;;;4925563;28;89995;-32
2023/03/19 01:54:06;;;;;;;13.57;11.40;;;10.40;99.90;;;;;;4937902;28;90313;-31
2023/03/19 01:56:37;;;;;;;15.68;12.18;;;10.40;99.90;;;;;;4938826;28;89179;-28
2023/03/19 01:59:08;;;;;;;16.10;13.32;;;10.40;99.90;;;;;;4938451;28;91023;-30
2023/03/19 02:01:42;;;;;;;15.13;12.95;;;10.40;99.90;;;;;;4938721;28;89236;-29
2023/03/19 02:04:08;;;;;;;16.75;13.57;;;10.40;99.90;;;;;;4938361;28;90514;-29
2023/03/19 02:06:35;;;;;;;14.60;12.25;;;10.40;99.90;;;;;;4938492;28;90812;-29
2023/03/19 02:09:01;;;;;;;16.15;14.07;;;10.40;99.90;;;;;;4937673;28;91057;-30
2023/03/19 02:11:27;;;;;;;17.83;14.32;;;10.40;99.90;;;;;;4938735;28;89206;-31
2023/03/19 02:13:53;;;;;;;14.80;12.98;;;10.40;99.90;;;;;;4938558;28;89912;-30
2023/03/19 02:16:19;;;;;;;17.48;14.13;;;10.30;99.90;;;;;;4938509;28;89551;-28
2023/03/19 02:18:45;;;;;;;16.00;13.23;;;10.30;99.90;;;;;;4938745;28;89626;-28
2023/03/19 02:21:16;;;;;;;19.15;13.73;;;10.30;99.90;;;;;;4937933;28;87798;-29
2023/03/19 02:24:10;;;;;;;13.23;11.50;;;10.30;99.90;;;;;;4937829;28;90306;-30
2023/03/19 02:26:36;;;;;;;14.40;12.18;;;10.30;99.90;;;;;;4937583;28;89734;-28
2023/03/19 02:29:03;;;;;;;14.15;11.90;;;10.30;99.90;;;;;;4938434;28;88695;-30
2023/03/19 02:31:29;;;;;;;15.43;11.73;;;10.30;99.90;;;;;;4937730;28;89122;-30
2023/03/19 02:34:04;;;;;;;15.90;12.18;;;10.20;99.90;;;;;;4937720;28;89807;-33
2023/03/19 02:36:37;;;;;;;17.60;12.60;;;10.20;99.90;;;;;;4920543;28;89040;-30
2023/03/19 02:39:08;;;;;;;11.90;10.68;;;10.20;99.90;;;;;;4937508;28;88882;-32
2023/03/19 02:41:37;;;;;;;14.23;10.48;;;10.20;99.90;;;;;;4937690;28;89988;-29
2023/03/19 02:44:03;;;;;;;15.55;12.57;;;10.10;99.90;;;;;;4937427;28;90673;-30
2023/03/19 02:46:29;;;;;;;14.45;11.88;;;10.10;99.90;;;;;;4937873;28;89527;-28
2023/03/19 02:48:55;;;;;;;11.63;9.68;;;10.10;99.90;;;;;;4937293;28;88854;-32
2023/03/19 02:51:20;;;;;;;12.88;10.13;;;10.10;99.90;;;;;;4924087;28;89654;-32
2023/03/19 02:53:46;;;;;;;12.70;10.80;;;10.10;99.90;;;;;;4941169;28;90381;-32
2023/03/19 02:56:12;;;;;;;11.98;10.75;;;10.10;99.90;;;;;;4940539;28;90173;-32
2023/03/19 02:58:37;;;;;;;10.88;9.77;;;10.00;99.90;;;;;;4941458;28;90650;-28
2023/03/19 03:01:03;;;;;;;11.50;9.30;;;10.00;99.90;;;;;;4941152;28;88961;-30
2023/03/19 03:03:29;;;;;;;10.07;9.02;;;10.00;99.90;;;;;;4923613;28;89863;-33
2023/03/19 03:05:55;;;;;;;11.75;9.00;;;10.00;99.90;;;;;;4941064;28;90799;-31
2023/03/19 03:08:21;;;;;;;9.48;8.43;;;10.00;99.90;;;;;;4941851;28;89342;-29
2023/03/19 03:10:46;;;;;;;8.90;7.78;;;10.00;99.90;;;;;;4942100;28;90296;-31
2023/03/19 03:13:12;;;;;;;10.05;8.07;;;10.00;99.90;;;;;;4941504;28;90388;-29
2023/03/19 03:15:38;;;;;;;9.18;8.27;;;10.00;99.90;;;;;;4941421;28;90471;-31
2023/03/19 03:18:04;;;;;;;9.55;8.65;;;10.00;99.90;;;;;;4940825;28;89442;-32
2023/03/19 03:20:30;;;;;;;9.75;8.73;;;10.00;99.90;;;;;;4940835;28;90571;-32
2023/03/19 03:22:56;;;;;;;10.20;9.18;;;10.00;99.90;;;;;;4941452;28;89351;-29
2023/03/19 03:25:22;;;;;;;9.80;8.43;;;10.00;99.90;;;;;;4940624;28;89872;-30
2023/03/19 03:27:47;;;;;;;9.77;8.70;;;9.90;99.90;;;;;;4941330;28;89857;-32
2023/03/19 03:30:15;;;;;;;12.57;8.70;;;10.00;99.90;;;;;;4941264;28;88905;-31
2023/03/19 03:32:41;;;;;;;12.32;9.48;;;9.90;99.90;;;;;;4940685;28;89803;-30
2023/03/19 03:35:08;;;;;;;12.95;9.77;;;9.90;99.90;;;;;;4941140;28;89488;-33
2023/03/19 03:37:34;;;;;;;8.88;7.65;;;9.90;99.90;;;;;;4941481;28;90862;-31
2023/03/19 03:39:59;;;;;;;9.68;8.55;;;9.90;99.90;;;;;;4940583;28;89080;-30
2023/03/19 03:42:25;;;;;;;9.27;7.50;;;9.90;99.90;;;;;;4941229;28;90235;-32
2023/03/19 03:44:51;;;;;;;10.23;8.85;;;9.90;99.90;;;;;;4940280;28;91482;-29
2023/03/19 03:47:17;;;;;;;11.32;8.85;;;9.90;99.90;;;;;;4941425;28;90523;-29
2023/03/19 03:49:43;;;;;;;9.70;8.25;;;9.90;99.90;;;;;;4940942;28;90320;-30
2023/03/19 03:52:09;;;;;;;8.55;7.53;;;9.80;99.90;;;;;;4940267;28;90605;-31
2023/03/19 03:54:34;;;;;;;9.32;7.00;;;9.80;99.90;;;;;;4940740;28;90010;-31
2023/03/19 03:57:00;;;;;;;8.85;7.82;;;9.80;99.90;;;;;;4940798;28;89654;-29
2023/03/19 03:59:26;;;;;;;8.07;6.97;;;9.80;99.90;;;;;;4941588;28;90439;-31
2023/03/19 04:01:52;;;;;;;11.45;9.05;;;9.70;99.90;;;;;;4940748;28;89947;-30
2023/03/19 04:04:19;;;;;;;10.77;7.18;;;9.70;99.90;;;;;;4939620;28;89396;-33
2023/03/19 04:06:45;;;;;;;8.63;6.85;;;9.70;99.90;;;;;;4941204;28;89228;-31
2023/03/19 04:09:10;;;;;;;9.07;7.18;;;9.70;99.90;;;;;;4940638;28;89864;-31
2023/03/19 04:11:37;;;;;;;8.55;6.88;;;9.70;99.90;;;;;;4941141;28;89862;-31
2023/03/19 04:14:03;;;;;;;7.63;6.93;;;9.70;99.90;;;;;;4940111;28;89890;-29
2023/03/19 04:16:28;;;;;;;7.43;5.53;;;9.60;99.90;;;;;;4940110;28;90293;-29
2023/03/19 04:18:54;;;;;;;8.02;6.50;;;9.60;99.90;;;;;;4940312;28;89637;-31
2023/03/19 04:21:20;;;;;;;6.30;5.68;;;9.60;99.90;;;;;;4940179;28;90271;-34
2023/03/19 04:23:46;;;;;;;8.05;6.32;;;9.70;99.90;;;;;;4922631;28;89703;-32
2023/03/19 04:26:11;;;;;;;6.82;6.20;;;9.70;99.90;;;;;;4941021;28;90833;-30
2023/03/19 04:28:37;;;;;;;6.72;5.00;;;9.70;99.90;;;;;;4939837;28;88236;-28
2023/03/19 04:31:08;;;;;;;7.40;4.93;;;9.70;99.90;;;;;;4940210;28;90509;-32
2023/03/19 04:33:34;;;;;;;4.93;4.38;;;9.70;99.90;;;;;;4939895;28;90559;-30
2023/03/19 04:36:00;;;;;;;6.15;4.85;;;9.70;99.90;;;;;;4940371;28;89848;-32
2023/03/19 04:38:26;;;;;;;6.90;5.13;;;9.70;99.90;;;;;;4939893;28;89133;-32
2023/03/19 04:40:52;;;;;;;7.20;4.78;;;9.70;99.90;;;;;;4939953;28;90375;-29
2023/03/19 04:43:18;;;;;;;6.55;4.68;;;9.80;99.90;;;;;;4939550;28;89787;-32
2023/03/19 04:45:43;;;;;;;4.70;4.30;;;9.80;99.90;;;;;;4940386;28;89429;-33
2023/03/19 04:48:09;;;;;;;4.65;4.18;;;9.80;99.90;;;;;;4940872;28;89538;-28
2023/03/19 04:50:35;;;;;;;4.10;3.70;;;9.80;99.90;;;;;;4939780;28;90287;-30
2023/03/19 04:53:01;;;;;;;5.32;4.20;;;9.80;99.90;;;;;;4921330;28;90059;-32
2023/03/19 04:55:27;;;;;;;5.05;4.60;;;9.80;99.90;;;;;;4940412;28;89259;-29
2023/03/19 04:57:52;;;;;;;5.55;4.20;;;9.80;99.90;;;;;;4940192;28;89653;-30
2023/03/19 05:00:19;;;;;;;5.07;4.63;;;9.80;99.90;;;;;;4940292;28;90759;-30
2023/03/19 05:02:45;;;;;;;4.57;3.95;;;9.80;99.90;;;;;;4939256;28;89951;-28
2023/03/19 05:05:12;;;;;;;6.95;4.88;;;9.80;99.90;;;;;;4939702;28;89909;-32
2023/03/19 05:07:39;;;;;;;5.72;4.65;;;9.80;99.90;;;;;;4939512;28;89804;-28
2023/03/19 05:10:06;;;;;;;5.05;4.55;;;9.80;99.90;;;;;;4939699;28;90012;-30
2023/03/19 05:12:32;;;;;;;6.85;5.15;;;9.80;99.90;;;;;;4939194;28;89505;-34
2023/03/19 05:14:58;;;;;;;4.68;4.22;;;9.80;99.90;;;;;;4939414;28;89847;-30
2023/03/19 05:17:24;;;;;;;4.88;4.32;;;9.80;99.90;;;;;;4939666;28;88272;-29
2023/03/19 05:19:51;;;;;;;6.80;4.93;;;9.80;99.90;;;;;;4939212;28;89825;-30
2023/03/19 05:22:18;;;;;;;4.45;4.05;;;9.80;99.90;;;;;;4939160;28;90706;-32
2023/03/19 05:24:44;;;;;;;4.38;3.97;;;9.70;99.90;;;;;;4939258;28;90021;-30
2023/03/19 05:27:11;;;;;;;4.72;4.22;;;9.70;99.90;;;;;;4927144;28;88355;-28
2023/03/19 05:29:36;;;;;;;4.78;4.35;;;9.70;99.90;;;;;;4938926;28;89824;-30
2023/03/19 05:32:02;;;;;;;4.78;4.38;;;9.70;99.90;;;;;;4939019;28;89743;-31
2023/03/19 05:34:28;;;;;;;5.38;4.82;;;9.70;99.90;;;;;;4939573;28;89922;-32
2023/03/19 05:36:54;;;;;;;5.93;5.32;;;9.60;99.90;;;;;;4939705;28;87499;-32
2023/03/19 05:39:20;;;;;;;5.63;4.90;;;9.60;99.90;;;;;;4939008;28;90106;-34
2023/03/19 05:41:46;;;;;;;5.03;4.57;;;9.60;99.90;;;;;;4939570;28;89759;-31
2023/03/19 05:44:11;;;;;;;4.13;3.53;;;9.60;99.90;;;;;;4939123;28;90796;-33
2023/03/19 05:46:37;;;;;;;5.55;4.85;;;9.50;99.90;;;;;;4939752;28;90329;-28
2023/03/19 05:49:03;;;;;;;5.70;5.10;;;9.50;99.90;;;;;;4938406;28;89026;-31
2023/03/19 05:51:29;;;;;;;5.97;5.10;;;9.50;99.90;;;;;;4927352;28;89742;-30
2023/03/19 05:53:56;;;;;;;5.80;4.75;;;9.50;99.90;;;;;;4939809;28;88544;-27
2023/03/19 05:56:22;;;;;;;5.78;4.35;;;9.50;99.90;;;;;;4939774;28;89543;-30
2023/03/19 05:58:48;;;;;;;5.07;4.35;;;9.40;99.90;;;;;;4939217;28;90256;-29
2023/03/19 06:01:13;;;;;;;5.10;4.53;;;9.40;99.90;;;;;;4938981;28;89719;-32
2023/03/19 06:03:39;;;;;;;5.15;4.65;;;9.40;99.90;;;;;;4938798;28;89534;-32
2023/03/19 06:06:06;;;;;;;5.15;4.65;;;9.40;99.90;;;;;;4939902;28;88430;-30
2023/03/19 06:08:31;;;;;;;6.75;6.15;;;9.40;99.90;;;;;;4938490;28;90484;-30
2023/03/19 06:10:57;;;;;;;5.57;4.70;;;9.50;99.90;;;;;;4938991;28;90562;-32
2023/03/19 06:13:23;;;;;;;8.13;6.57;;;9.50;99.90;;;;;;4938307;28;90650;-33
2023/03/19 06:15:48;;;;;;;6.57;5.30;;;9.50;99.90;;;;;;4938680;28;89387;-33
2023/03/19 06:18:15;;;;;;;6.25;5.47;;;9.50;99.90;;;;;;4939012;28;90044;-29
2023/03/19 06:20:41;;;;;;;7.13;6.22;;;9.50;99.90;;;;;;4938277;28;89813;-28
2023/03/19 06:23:07;;;;;;;6.70;5.07;;;9.50;99.90;;;;;;4938723;28;89231;-32
2023/03/19 06:25:32;;;;;;;6.25;5.25;;;9.50;99.90;;;;;;4940966;28;87531;-29
2023/03/19 06:27:58;;;;;;;6.38;5.78;;;9.40;99.90;;;;;;4942226;28;90081;-31
2023/03/19 06:30:24;;;;;;;6.25;5.63;;;9.40;99.90;;;;;;4942442;28;89831;-27
2023/03/19 06:32:50;;;;;;;7.70;6.60;;;9.40;99.90;;;;;;4941325;28;88081;-32
2023/03/19 06:35:16;;;;;;;6.13;5.57;;;9.40;99.90;;;;;;4942651;28;90733;-32
2023/03/19 06:37:42;;;;;;;7.70;5.47;;;9.40;99.90;;;;;;4942422;28;90467;-30
2023/03/19 06:40:08;;;;;;;8.15;6.65;;;9.40;99.90;;;;;;4941868;28;89762;-29
2023/03/19 06:42:34;;;;;;;8.82;5.72;;;9.40;99.90;;;;;;4941798;28;88819;-33
2023/03/19 06:45:00;;;;;;;14.85;6.20;;;9.50;99.90;;;;;;4941497;28;89000;-32
2023/03/19 06:47:25;;;;;;;6.05;5.45;;;9.50;99.90;;;;;;4942141;28;88824;-31
2023/03/19 06:49:51;;;;;;;9.23;6.13;;;9.50;99.90;;;;;;4929125;28;90876;-31
2023/03/19 06:52:17;;;;;;;13.00;5.90;;;9.50;99.90;;;;;;4940887;28;90281;-29
2023/03/19 06:54:42;;;;;;;6.55;5.68;;;9.60;99.90;;;;;;4924236;28;89489;-32
2023/03/19 06:57:08;;;;;;;6.93;6.22;;;9.60;99.90;;;;;;4942376;28;89594;-30
2023/03/19 06:59:34;;;;;;;9.90;5.97;;;9.60;99.90;;;;;;4941648;28;90706;-30
2023/03/19 07:01:59;;;;;;;7.03;6.10;;;9.60;99.90;;;;;;4941269;28;90502;-32
2023/03/19 07:04:25;;;;;;;7.15;5.38;;;9.60;99.90;;;;;;4942285;28;88429;-30
2023/03/19 07:06:51;;;;;;;6.35;5.80;;;9.70;99.90;;;;;;4941080;28;90276;-32
2023/03/19 07:09:16;;;;;;;7.38;6.05;;;9.70;99.90;;;;;;4941542;28;91683;-29
2023/03/19 07:11:42;;;;;;;9.23;6.85;;;9.70;99.90;;;;;;4941481;28;89636;-27
2023/03/19 07:14:08;;;;;;;8.40;7.60;;;9.70;99.90;;;;;;4941306;28;89428;-29
2023/03/19 07:16:34;;;;;;;8.30;6.15;;;9.80;99.90;;;;;;4942208;28;90118;-31
2023/03/19 07:19:00;;;;;;;8.18;6.63;;;9.80;99.90;;;;;;4940965;28;89821;-30
2023/03/19 07:21:25;;;;;;;7.65;6.65;;;9.80;99.90;;;;;;4942179;28;88871;-29
2023/03/19 07:23:51;;;;;;;7.10;6.22;;;9.80;99.90;;;;;;4941041;28;89679;-32
2023/03/19 07:26:17;;;;;;;6.15;5.40;;;9.80;99.90;;;;;;4940987;28;90292;-29
2023/03/19 07:28:43;;;;;;;8.07;6.93;;;9.90;99.90;;;;;;4929248;28;89799;-32
2023/03/19 07:31:08;;;;;;;8.30;7.20;;;9.90;99.90;;;;;;4941640;28;90066;-29
2023/03/19 07:33:34;;;;;;;9.32;8.20;;;9.90;99.90;;;;;;4941091;28;89016;-33
2023/03/19 07:36:00;;;;;;;8.15;7.35;;;10.00;99.90;;;;;;4940800;28;90249;-31
2023/03/19 07:38:26;;;;;;;10.32;7.03;;;10.00;99.90;;;;;;4923039;28;90145;-29
2023/03/19 07:40:51;;;;;;;10.82;7.03;;;10.10;99.90;;;;;;4923711;28;89304;-31
2023/03/19 07:43:17;;;;;;;9.23;7.28;;;10.10;99.90;;;;;;4941085;28;88270;-32
2023/03/19 07:45:43;;;;;;;12.27;7.90;;;10.10;99.90;;;;;;4940357;28;91459;-32
2023/03/19 07:48:08;;;;;;;9.43;7.95;;;10.20;99.90;;;;;;4940649;28;91334;-30
2023/03/19 07:50:34;;;;;;;15.68;9.43;;;10.20;99.90;;;;;;4941174;28;91137;-30
2023/03/19 07:53:00;;;;;;;8.90;8.02;;;10.30;99.90;;;;;;4940886;28;88448;-29
2023/03/19 07:55:25;;;;;;;9.75;8.13;;;10.50;99.90;;;;;;4941101;28;90147;-29
2023/03/19 07:57:51;;;;;;;9.02;8.10;;;10.60;99.90;;;;;;4940593;28;89960;-30
2023/03/19 08:00:18;;;;;;;11.32;8.35;;;10.70;99.90;;;;;;4940554;28;90255;-30
2023/03/19 08:02:44;;;;;;;9.63;8.20;;;10.70;99.90;;;;;;4941031;28;88321;-30
2023/03/19 08:05:10;;;;;;;12.85;9.93;;;10.80;99.90;;;;;;4941402;28;90371;-29
2023/03/19 08:07:36;;;;;;;13.35;10.50;;;10.80;99.90;;;;;;4940512;28;89985;-29
2023/03/19 08:10:06;;;;;;;10.35;9.32;;;10.80;99.90;;;;;;4940223;28;90601;-30
2023/03/19 08:12:33;;;;;;;10.93;9.68;;;10.80;99.90;;;;;;4939904;28;88453;-29
2023/03/19 08:14:59;;;;;;;11.63;9.27;;;10.90;99.90;;;;;;4940587;28;89631;-31
2023/03/19 08:17:24;;;;;;;11.88;10.13;;;10.90;99.90;;;;;;4940550;28;89536;-28
2023/03/19 08:19:50;;;;;;;10.57;9.50;;;10.90;99.90;;;;;;4939741;28;89298;-29
2023/03/19 08:22:16;;;;;;;12.10;9.85;;;11.00;99.90;;;;;;4940397;28;89167;-33
2023/03/19 08:24:41;;;;;;;14.25;11.10;;;11.00;99.90;;;;;;4939807;28;90087;-30
2023/03/19 08:27:07;;;;;;;12.60;9.98;;;11.00;99.90;;;;;;4940008;28;90170;-31
2023/03/19 08:29:33;;;;;;;13.45;11.35;;;11.10;99.90;;;;;;4939794;28;89781;-30
2023/03/19 08:32:00;;;;;;;14.70;11.50;;;11.30;99.90;;;;;;4939600;28;88930;-31
2023/03/19 08:34:25;;;;;;;12.95;9.95;;;11.30;99.90;;;;;;4939259;28;92135;-31
2023/03/19 08:36:51;;;;;;;15.20;11.18;;;11.30;99.90;;;;;;4940252;28;90389;-30
2023/03/19 08:39:17;;;;;;;14.45;10.52;;;11.40;99.90;;;;;;4940235;28;90515;-30
2023/03/19 08:41:42;;;;;;;15.98;10.55;;;11.50;99.90;;;;;;4939552;28;89126;-29
2023/03/19 08:44:08;;;;;;;17.02;12.48;;;11.50;99.90;;;;;;4938856;28;90585;-32
2023/03/19 08:46:33;;;;;;;17.05;12.43;;;11.50;99.90;;;;;;4938905;28;89643;-30
2023/03/19 08:48:59;;;;;;;13.63;10.98;;;11.40;99.90;;;;;;4938876;28;89927;-30
2023/03/19 08:51:27;;;;;;;15.52;10.93;;;11.50;99.90;;;;;;4921235;28;89925;-30
2023/03/19 08:53:53;;;;;;;16.25;11.90;;;11.50;99.90;;;;;;4920783;28;89423;-29
2023/03/19 08:56:18;;;;;;;19.60;11.68;;;11.50;99.90;;;;;;4938986;28;89723;-29
2023/03/19 08:58:44;;;;;;;17.50;13.07;;;11.50;99.90;;;;;;4939568;28;89978;-31
2023/03/19 09:01:12;;;;;;;16.15;12.27;;;11.50;99.90;;;;;;4939231;28;90333;-30
2023/03/19 09:03:39;;;;;;;;;;;11.60;99.90;;;;;;4939667;28;90292;-29
2023/03/19 09:06:07;;;;;;;19.23;12.50;;;11.70;99.90;;;;;;4941661;28;89210;-31
2023/03/19 09:08:34;;;;;;;16.80;11.57;;;11.70;99.90;;;;;;4939209;28;89722;-31
2023/03/19 09:11:00;;;;;;;16.63;11.25;;;11.70;99.90;;;;;;4921087;28;87874;-30
2023/03/19 09:13:25;;;;;;;14.48;11.93;;;11.90;99.90;;;;;;4939383;28;90864;-29
2023/03/19 09:15:51;;;;;;;15.48;11.88;;;11.80;99.90;;;;;;4938001;28;89649;-31
2023/03/19 09:18:19;;;;;;;15.63;11.80;;;11.90;99.90;;;;;;4939606;28;90085;-28
2023/03/19 09:20:46;;;;;;;13.80;12.38;;;11.90;99.90;;;;;;4939400;28;89539;-32
2023/03/19 09:23:11;;;;;;;14.25;10.88;;;12.10;99.90;;;;;;4938484;28;89132;-32
2023/03/19 09:25:37;;;;;;;14.15;11.55;;;12.20;99.90;;;;;;4935801;28;89624;-33
2023/03/19 09:28:03;;;;;;;18.73;12.30;;;12.20;99.90;;;;;;4936605;28;90532;-31
2023/03/19 09:30:28;;;;;;;14.88;11.43;;;12.20;99.90;;;;;;4938431;28;89381;-32
2023/03/19 09:32:54;;;;;;;14.73;10.48;;;12.20;99.90;;;;;;4939055;28;90896;-28
2023/03/19 09:35:20;;;;;;;12.88;11.50;;;12.10;99.90;;;;;;4938391;28;89178;-33
2023/03/19 09:37:46;;;;;;;16.90;11.70;;;12.10;99.90;;;;;;4938457;28;89413;-29
2023/03/19 09:40:24;;;;;;;15.20;11.55;;;12.20;99.90;;;;;;4939075;28;88804;-30
2023/03/19 09:43:23;;;;;;;14.10;10.88;;;12.50;99.90;;;;;;4938117;28;90155;-28
2023/03/19 09:45:49;;;;;;;10.93;9.63;;;13.00;99.90;;;;;;4930056;28;90224;-31
2023/03/19 09:48:31;;;;;;;11.65;8.25;;;13.10;99.90;;;;;;4924703;28;89150;-31
2023/03/19 09:51:01;;;;;;;12.57;9.77;;;13.00;99.90;;;;;;4918717;28;89567;-31
2023/03/19 09:53:52;;;;;;;11.05;7.90;;;13.00;99.90;;;;;;4936503;28;90236;-31
2023/03/19 09:56:18;;;;;;;10.43;8.95;;;12.80;99.90;;;;;;4937034;28;89645;-31
2023/03/19 09:58:44;;;;;;;12.82;8.68;;;12.60;99.90;;;;;;4937999;28;90441;-32
2023/03/19 10:01:36;;;;;;;11.98;8.65;;;12.60;99.90;;;;;;4940517;28;89346;-30
2023/03/19 10:04:29;;;;;;;9.80;7.28;;;12.60;99.90;;;;;;4940487;28;91001;-29
2023/03/19 10:07:12;;;;;;;9.95;6.68;;;12.70;99.90;;;;;;4933524;28;89929;-32
2023/03/19 10:10:09;;;;;;;10.75;7.65;;;12.80;99.90;;;;;;4934199;28;89666;-29
2023/03/19 10:13:13;;;;;;;9.15;8.00;;;12.90;99.90;;;;;;4939440;28;88696;-30
2023/03/19 10:15:43;;;;;;;10.65;7.45;;;12.80;99.90;;;;;;4934386;28;90498;-32
2023/03/19 10:18:18;;;;;;;10.05;7.95;;;12.70;99.90;;;;;;4937902;28;90426;-29
2023/03/19 10:21:02;;;;;;;11.55;9.23;;;12.60;99.90;;;;;;4940117;28;90851;-31
2023/03/19 10:23:59;;;;;;;10.27;7.90;;;12.70;99.90;;;;;;4939658;28;89299;-30
2023/03/19 10:26:30;;;;;;;8.68;7.90;;;12.80;99.90;;;;;;4939274;28;90218;-29
2023/03/19 10:29:14;;;;;;;11.63;7.85;;;12.90;99.90;;;;;;4939439;28;90465;-29
2023/03/19 10:31:41;;;;;;;13.02;9.98;;;13.00;99.90;;;;;;4939400;28;88524;-33
2023/03/19 10:34:20;;;;;;;9.07;8.20;;;13.20;99.90;;;;;;4939664;28;89328;-30
2023/03/19 10:36:45;;;;;;;;;;;13.30;99.90;;;;;;4939967;28;90392;-29
2023/03/19 10:39:15;;;;;;;11.27;8.98;;;13.30;99.90;;;;;;4940534;28;89615;-32
2023/03/19 10:41:56;;;;;;;12.75;8.60;;;13.60;99.90;;;;;;4939130;28;88699;-32
2023/03/19 10:44:35;;;;;;;11.88;9.82;;;13.90;99.90;;;;;;4938448;28;89548;-32
2023/03/19 10:47:11;;;;;;;10.15;8.95;;;14.00;99.90;;;;;;4938996;28;90252;-29
2023/03/19 10:49:37;;;;;;;13.73;10.07;;;14.10;99.90;;;;;;4938790;28;90197;-29
2023/03/19 10:52:03;;;;;;;12.20;10.18;;;13.90;99.90;;;;;;4937135;28;89954;-29
2023/03/19 10:54:29;;;;;;;10.85;9.20;;;13.90;99.90;;;;;;4938321;28;89503;-32
2023/03/19 10:57:00;;;;;;;12.55;9.15;;;13.70;99.90;;;;;;4939319;28;90443;-31
2023/03/19 10:59:36;;;;;;;13.05;8.10;;;14.00;99.90;;;;;;4939325;28;89948;-27
2023/03/19 11:02:15;;;;;;;12.02;8.35;;;14.10;99.90;;;;;;4939303;28;90835;-29
2023/03/19 11:04:41;;;;;;;19.33;8.85;;;14.10;99.90;;;;;;4939388;28;88184;-29
2023/03/19 11:07:12;;;;;;;11.40;8.02;;;14.00;99.90;;;;;;4938810;28;90447;-31
2023/03/19 11:09:41;;;;;;;9.82;8.90;;;13.90;99.90;;;;;;4938962;28;90230;-31
2023/03/19 11:12:12;;;;;;;;;;;13.80;99.90;;;;;;4939058;28;90796;-31
2023/03/19 11:14:42;;;;;;;8.70;7.63;;;14.00;99.90;;;;;;4940943;28;88229;-30
2023/03/19 11:17:35;;;;;;;10.02;8.25;;;14.00;99.90;;;;;;4919063;28;90724;-32
2023/03/19 11:20:18;;;;;;;10.82;8.63;;;14.00;99.90;;;;;;4937991;28;89539;-31
2023/03/19 11:22:43;;;;;;;12.20;9.32;;;13.90;99.90;;;;;;4921198;28;89681;-32
2023/03/19 11:25:33;;;;;;;10.27;9.23;;;13.80;99.90;;;;;;4939060;28;89474;-32
2023/03/19 11:28:20;;;;;;;9.13;8.23;;;14.00;99.90;;;;;;4938438;28;90287;-33
2023/03/19 11:30:57;;;;;;;12.45;9.02;;;13.90;99.90;;;;;;4938170;28;89336;-31
2023/03/19 11:33:54;;;;;;;11.20;9.82;;;14.10;99.90;;;;;;4939354;28;89799;-30
2023/03/19 11:36:52;;;;;;;10.27;8.30;;;14.30;99.90;;;;;;4939412;28;88726;-30
2023/03/19 11:39:47;;;;;;;14.20;8.10;;;14.50;99.90;;;;;;4927465;28;90276;-29
2023/03/19 11:42:44;;;;;;;10.88;9.32;;;14.60;99.90;;;;;;4938263;28;91171;-29
2023/03/19 11:45:12;;;;;;;12.13;9.27;;;14.60;99.90;;;;;;4938724;28;88792;-29
2023/03/19 11:47:37;;;;;;;;;;;14.90;99.90;;;;;;4921447;28;89876;-29
2023/03/19 11:50:24;;;;;;;11.60;9.10;;;15.20;99.90;;;;;;4939714;28;89819;-32
2023/03/19 11:53:11;;;;;;;12.20;10.85;;;15.30;99.90;;;;;;4972179;22;89966;-30
2023/03/19 11:56:14;;;;;;;10.52;9.40;;;15.10;99.90;;;;;;4937669;28;89353;-32
2023/03/19 11:58:53;;;;;;;11.73;9.93;;;15.30;99.90;;;;;;4938732;28;89379;-30
2023/03/19 12:01:48;;;;;;;11.57;9.52;;;15.30;99.90;;;;;;4927469;28;89863;-33
2023/03/19 12:04:22;;;;;;;12.35;10.90;;;15.40;99.90;;;;;;4938072;28;89610;-29
2023/03/19 12:07:03;;;;;;;10.95;9.85;;;15.10;99.90;;;;;;4937027;28;90195;-30
2023/03/19 12:09:38;;;;;;;10.18;8.82;;;15.40;99.90;;;;;;4927995;28;88779;-30
2023/03/19 12:12:24;;;;;;;11.30;9.88;;;15.60;99.90;;;;;;4938253;28;90277;-31
2023/03/19 12:15:08;;;;;;;13.30;11.15;;;15.40;99.90;;;;;;4938351;28;89810;-29
2023/03/19 12:17:49;;;;;;;13.15;10.57;;;15.40;99.90;;;;;;4926562;28;90356;-31
2023/03/19 12:20:39;;;;;;;14.40;10.85;;;15.60;99.90;;;;;;4937788;28;89233;-29
2023/03/19 12:23:35;;;;;;;15.57;11.55;;;15.80;99.90;;;;;;4877575;28;90028;-31
2023/03/19 12:26:16;;;;;;;11.40;10.18;;;15.60;99.90;;;;;;4937929;28;89705;-31
2023/03/19 12:28:58;;;;;;;12.23;10.15;;;15.70;99.90;;;;;;4937189;28;89702;-31
2023/03/19 12:31:40;;;;;;;11.80;10.20;;;15.80;99.90;;;;;;4936892;28;90351;-30
2023/03/19 12:34:30;;;;;;;11.05;9.82;;;15.70;99.90;;;;;;4937665;28;89999;-30
2023/03/19 12:37:14;;;;;;;10.95;9.85;;;15.60;99.90;;;;;;4926026;28;90256;-34
2023/03/19 12:40:03;;;;;;;13.23;10.20;;;15.60;99.90;;;;;;4937066;28;89992;-33
2023/03/19 12:42:33;;;;;;;10.43;8.70;;;15.70;99.90;;;;;;4937516;28;88871;-32
2023/03/19 12:45:01;;;;;;;14.45;9.98;;;15.70;99.90;;;;;;4937286;28;90129;-32
2023/03/19 12:47:38;;;;;;;9.23;8.32;;;15.70;99.90;;;;;;4938088;28;89753;-33
2023/03/19 12:50:08;;;;;;;10.73;9.25;;;15.70;99.90;;;;;;4937736;28;89601;-32
2023/03/19 12:52:39;;;;;;;10.45;9.35;;;15.50;99.90;;;;;;4937320;28;90760;-31